sensor_id;sensor_type;location;lat;lon;timestamp;temperature;humidity
32173;DHT22;18679;45.190;5.722;2023-08-01T00:02:26;25.80;39.40
32173;DHT22;18679;45.190;5.722;2023-08-01T00:05:27;25.80;39.50
32173;DHT22;18679;45.190;5.722;2023-08-01T00:08:27;25.80;39.60
32173;DHT22;18679;45.190;5.722;2023-08-01T00:11:28;25.80;39.70
32173;DHT22;18679;45.190;5.722;2023-08-01T00:14:29;25.70;39.60
32173;DHT22;18679;45.190;5.722;2023-08-01T00:17:30;25.70;39.60
32173;DHT22;18679;45.190;5.722;2023-08-01T00:20:31;25.70;39.70
32173;DHT22;18679;45.190;5.722;2023-08-01T00:23:31;25.70;39.80
32173;DHT22;18679;45.190;5.722;2023-08-01T00:26:32;25.70;39.80
32173;DHT22;18679;45.190;5.722;2023-08-01T00:29:33;25.70;39.90
32173;DHT22;18679;45.190;5.722;2023-08-01T00:32:35;25.60;39.90
32173;DHT22;18679;45.190;5.722;2023-08-01T00:35:35;25.60;39.90
32173;DHT22;18679;45.190;5.722;2023-08-01T00:38:36;25.60;40.00
32173;DHT22;18679;45.190;5.722;2023-08-01T00:41:38;25.60;40.50
32173;DHT22;18679;45.190;5.722;2023-08-01T00:44:39;25.60;40.20
32173;DHT22;18679;45.190;5.722;2023-08-01T00:47:40;25.50;40.20
32173;DHT22;18679;45.190;5.722;2023-08-01T00:50:41;25.50;40.20
32173;DHT22;18679;45.190;5.722;2023-08-01T00:53:42;25.50;40.50
32173;DHT22;18679;45.190;5.722;2023-08-01T00:56:43;25.50;40.60
32173;DHT22;18679;45.190;5.722;2023-08-01T00:59:45;25.40;40.80
32173;DHT22;18679;45.190;5.722;2023-08-01T01:02:46;25.40;40.90
32173;DHT22;18679;45.190;5.722;2023-08-01T01:05:57;25.40;40.90
32173;DHT22;18679;45.190;5.722;2023-08-01T01:09:02;25.40;41.20
32173;DHT22;18679;45.190;5.722;2023-08-01T01:12:05;25.40;41.30
32173;DHT22;18679;45.190;5.722;2023-08-01T01:15:08;25.30;41.50
32173;DHT22;18679;45.190;5.722;2023-08-01T01:18:09;25.30;41.70
32173;DHT22;18679;45.190;5.722;2023-08-01T01:21:09;25.30;41.80
32173;DHT22;18679;45.190;5.722;2023-08-01T01:24:11;25.20;41.90
32173;DHT22;18679;45.190;5.722;2023-08-01T01:27:16;25.20;42.00
32173;DHT22;18679;45.190;5.722;2023-08-01T01:30:18;25.20;42.20
32173;DHT22;18679;45.190;5.722;2023-08-01T01:33:19;25.10;42.10
32173;DHT22;18679;45.190;5.722;2023-08-01T01:36:20;25.10;42.60
32173;DHT22;18679;45.190;5.722;2023-08-01T01:39:21;25.00;41.90
32173;DHT22;18679;45.190;5.722;2023-08-01T01:42:21;25.00;41.90
32173;DHT22;18679;45.190;5.722;2023-08-01T01:45:22;25.00;42.00
32173;DHT22;18679;45.190;5.722;2023-08-01T01:48:23;24.90;42.10
32173;DHT22;18679;45.190;5.722;2023-08-01T01:51:30;24.90;42.30
32173;DHT22;18679;45.190;5.722;2023-08-01T01:54:31;24.90;42.60
32173;DHT22;18679;45.190;5.722;2023-08-01T01:57:32;24.80;42.60
32173;DHT22;18679;45.190;5.722;2023-08-01T02:00:33;24.80;42.70
32173;DHT22;18679;45.190;5.722;2023-08-01T02:03:34;24.70;42.70
32173;DHT22;18679;45.190;5.722;2023-08-01T02:06:36;24.70;42.80
32173;DHT22;18679;45.190;5.722;2023-08-01T02:09:37;24.70;42.90
32173;DHT22;18679;45.190;5.722;2023-08-01T02:12:38;24.60;43.20
32173;DHT22;18679;45.190;5.722;2023-08-01T02:15:38;24.50;43.40
32173;DHT22;18679;45.190;5.722;2023-08-01T02:18:39;24.50;43.70
32173;DHT22;18679;45.190;5.722;2023-08-01T02:21:40;24.40;43.80
32173;DHT22;18679;45.190;5.722;2023-08-01T02:24:41;24.40;43.90
32173;DHT22;18679;45.190;5.722;2023-08-01T02:27:42;24.30;44.00
32173;DHT22;18679;45.190;5.722;2023-08-01T02:30:44;24.30;44.10
32173;DHT22;18679;45.190;5.722;2023-08-01T02:33:44;24.30;44.30
32173;DHT22;18679;45.190;5.722;2023-08-01T02:36:45;24.20;44.30
32173;DHT22;18679;45.190;5.722;2023-08-01T02:39:46;24.20;44.30
32173;DHT22;18679;45.190;5.722;2023-08-01T02:42:47;24.20;44.40
32173;DHT22;18679;45.190;5.722;2023-08-01T02:45:48;24.10;44.40
32173;DHT22;18679;45.190;5.722;2023-08-01T02:48:48;24.10;44.60
32173;DHT22;18679;45.190;5.722;2023-08-01T02:51:49;24.10;44.50
32173;DHT22;18679;45.190;5.722;2023-08-01T02:54:50;24.10;44.60
32173;DHT22;18679;45.190;5.722;2023-08-01T02:57:51;24.10;44.60
32173;DHT22;18679;45.190;5.722;2023-08-01T03:00:51;24.10;44.60
32173;DHT22;18679;45.190;5.722;2023-08-01T03:03:52;24.10;44.60
32173;DHT22;18679;45.190;5.722;2023-08-01T03:06:53;24.10;44.50
32173;DHT22;18679;45.190;5.722;2023-08-01T03:09:54;24.10;44.70
32173;DHT22;18679;45.190;5.722;2023-08-01T03:12:55;24.10;44.80
32173;DHT22;18679;45.190;5.722;2023-08-01T03:15:56;24.00;44.20
32173;DHT22;18679;45.190;5.722;2023-08-01T03:18:57;24.00;44.70
32173;DHT22;18679;45.190;5.722;2023-08-01T03:22:00;24.00;44.90
32173;DHT22;18679;45.190;5.722;2023-08-01T03:25:01;24.00;45.10
32173;DHT22;18679;45.190;5.722;2023-08-01T03:28:04;23.90;45.10
32173;DHT22;18679;45.190;5.722;2023-08-01T03:31:05;23.90;45.20
32173;DHT22;18679;45.190;5.722;2023-08-01T03:34:06;23.90;45.20
32173;DHT22;18679;45.190;5.722;2023-08-01T03:37:10;23.90;45.10
32173;DHT22;18679;45.190;5.722;2023-08-01T03:40:12;23.90;45.10
32173;DHT22;18679;45.190;5.722;2023-08-01T03:43:13;23.90;45.10
32173;DHT22;18679;45.190;5.722;2023-08-01T03:46:14;24.00;45.10
32173;DHT22;18679;45.190;5.722;2023-08-01T03:49:15;24.00;45.10
32173;DHT22;18679;45.190;5.722;2023-08-01T03:52:16;23.90;45.10
32173;DHT22;18679;45.190;5.722;2023-08-01T03:55:17;23.90;45.30
32173;DHT22;18679;45.190;5.722;2023-08-01T03:58:18;23.30;45.30
32173;DHT22;18679;45.190;5.722;2023-08-01T04:01:18;23.70;45.40
32173;DHT22;18679;45.190;5.722;2023-08-01T04:04:21;23.70;45.50
32173;DHT22;18679;45.190;5.722;2023-08-01T04:07:22;23.70;45.50
32173;DHT22;18679;45.190;5.722;2023-08-01T04:10:23;23.60;45.60
32173;DHT22;18679;45.190;5.722;2023-08-01T04:13:24;23.70;45.80
32173;DHT22;18679;45.190;5.722;2023-08-01T04:16:24;23.60;45.90
32173;DHT22;18679;45.190;5.722;2023-08-01T04:19:25;23.60;45.90
32173;DHT22;18679;45.190;5.722;2023-08-01T04:22:26;23.60;45.90
32173;DHT22;18679;45.190;5.722;2023-08-01T04:25:27;23.60;46.00
32173;DHT22;18679;45.190;5.722;2023-08-01T04:28:28;23.60;46.10
32173;DHT22;18679;45.190;5.722;2023-08-01T04:31:29;23.60;46.20
32173;DHT22;18679;45.190;5.722;2023-08-01T04:34:29;23.60;46.30
32173;DHT22;18679;45.190;5.722;2023-08-01T04:37:30;23.60;46.60
32173;DHT22;18679;45.190;5.722;2023-08-01T04:40:31;23.50;46.60
32173;DHT22;18679;45.190;5.722;2023-08-01T04:43:32;23.60;46.60
32173;DHT22;18679;45.190;5.722;2023-08-01T04:46:33;23.60;46.60
32173;DHT22;18679;45.190;5.722;2023-08-01T04:49:33;23.60;46.60
32173;DHT22;18679;45.190;5.722;2023-08-01T04:52:34;23.60;46.60
32173;DHT22;18679;45.190;5.722;2023-08-01T04:55:35;23.60;46.90
32173;DHT22;18679;45.190;5.722;2023-08-01T04:58:36;23.70;47.20
32173;DHT22;18679;45.190;5.722;2023-08-01T05:01:36;23.70;47.30
32173;DHT22;18679;45.190;5.722;2023-08-01T05:04:38;23.70;47.30
32173;DHT22;18679;45.190;5.722;2023-08-01T05:07:38;23.70;47.10
32173;DHT22;18679;45.190;5.722;2023-08-01T05:10:39;23.70;47.10
32173;DHT22;18679;45.190;5.722;2023-08-01T05:13:40;23.70;47.20
32173;DHT22;18679;45.190;5.722;2023-08-01T05:16:41;23.70;47.20
32173;DHT22;18679;45.190;5.722;2023-08-01T05:19:41;23.70;47.20
32173;DHT22;18679;45.190;5.722;2023-08-01T05:22:42;23.70;47.30
32173;DHT22;18679;45.190;5.722;2023-08-01T05:25:43;23.30;47.30
32173;DHT22;18679;45.190;5.722;2023-08-01T05:28:44;23.70;47.70
32173;DHT22;18679;45.190;5.722;2023-08-01T05:31:44;23.70;47.60
32173;DHT22;18679;45.190;5.722;2023-08-01T05:34:45;23.70;47.20
32173;DHT22;18679;45.190;5.722;2023-08-01T05:37:46;23.70;46.90
32173;DHT22;18679;45.190;5.722;2023-08-01T05:40:47;24.00;46.80
32173;DHT22;18679;45.190;5.722;2023-08-01T05:43:49;23.90;46.40
32173;DHT22;18679;45.190;5.722;2023-08-01T05:46:50;23.90;46.30
32173;DHT22;18679;45.190;5.722;2023-08-01T05:49:51;23.90;46.10
32173;DHT22;18679;45.190;5.722;2023-08-01T05:52:51;23.90;46.10
32173;DHT22;18679;45.190;5.722;2023-08-01T05:55:52;23.90;46.00
32173;DHT22;18679;45.190;5.722;2023-08-01T05:58:53;24.00;46.10
32173;DHT22;18679;45.190;5.722;2023-08-01T06:01:54;24.20;45.30
32173;DHT22;18679;45.190;5.722;2023-08-01T06:04:54;24.20;45.70
32173;DHT22;18679;45.190;5.722;2023-08-01T06:07:55;24.40;45.50
32173;DHT22;18679;45.190;5.722;2023-08-01T06:10:56;24.50;45.10
32173;DHT22;18679;45.190;5.722;2023-08-01T06:13:57;24.60;44.80
32173;DHT22;18679;45.190;5.722;2023-08-01T06:16:58;24.50;44.70
32173;DHT22;18679;45.190;5.722;2023-08-01T06:19:58;24.60;44.80
32173;DHT22;18679;45.190;5.722;2023-08-01T06:22:59;24.70;44.80
32173;DHT22;18679;45.190;5.722;2023-08-01T06:26:00;24.70;44.90
32173;DHT22;18679;45.190;5.722;2023-08-01T06:29:01;24.70;45.00
32173;DHT22;18679;45.190;5.722;2023-08-01T06:32:01;24.70;45.10
32173;DHT22;18679;45.190;5.722;2023-08-01T06:35:02;24.70;45.30
32173;DHT22;18679;45.190;5.722;2023-08-01T06:38:03;24.70;45.30
32173;DHT22;18679;45.190;5.722;2023-08-01T06:41:04;24.80;45.10
32173;DHT22;18679;45.190;5.722;2023-08-01T06:44:05;24.90;45.10
32173;DHT22;18679;45.190;5.722;2023-08-01T06:47:05;24.90;44.90
32173;DHT22;18679;45.190;5.722;2023-08-01T06:50:06;24.90;44.80
32173;DHT22;18679;45.190;5.722;2023-08-01T06:53:07;24.90;44.70
32173;DHT22;18679;45.190;5.722;2023-08-01T06:56:08;25.00;44.60
32173;DHT22;18679;45.190;5.722;2023-08-01T06:59:09;25.10;44.40
32173;DHT22;18679;45.190;5.722;2023-08-01T07:02:10;25.20;44.10
32173;DHT22;18679;45.190;5.722;2023-08-01T07:05:11;25.30;43.90
32173;DHT22;18679;45.190;5.722;2023-08-01T07:08:12;25.40;43.70
32173;DHT22;18679;45.190;5.722;2023-08-01T07:11:13;25.50;43.50
32173;DHT22;18679;45.190;5.722;2023-08-01T07:14:13;25.50;43.40
32173;DHT22;18679;45.190;5.722;2023-08-01T07:17:14;25.60;43.30
32173;DHT22;18679;45.190;5.722;2023-08-01T07:20:15;25.60;43.30
32173;DHT22;18679;45.190;5.722;2023-08-01T07:23:16;25.50;43.20
32173;DHT22;18679;45.190;5.722;2023-08-01T07:26:17;25.50;43.20
32173;DHT22;18679;45.190;5.722;2023-08-01T07:29:17;25.40;43.50
32173;DHT22;18679;45.190;5.722;2023-08-01T07:32:18;25.50;43.90
32173;DHT22;18679;45.190;5.722;2023-08-01T07:35:19;25.50;44.10
32173;DHT22;18679;45.190;5.722;2023-08-01T07:38:20;25.60;44.40
32173;DHT22;18679;45.190;5.722;2023-08-01T07:41:21;25.70;44.50
32173;DHT22;18679;45.190;5.722;2023-08-01T07:44:22;25.90;44.40
32173;DHT22;18679;45.190;5.722;2023-08-01T07:47:22;25.90;44.10
32173;DHT22;18679;45.190;5.722;2023-08-01T07:50:25;25.90;44.10
32173;DHT22;18679;45.190;5.722;2023-08-01T07:53:29;25.80;44.10
32173;DHT22;18679;45.190;5.722;2023-08-01T07:56:30;25.80;44.20
32173;DHT22;18679;45.190;5.722;2023-08-01T07:59:31;25.80;44.30
32173;DHT22;18679;45.190;5.722;2023-08-01T08:02:31;25.90;44.30
32173;DHT22;18679;45.190;5.722;2023-08-01T08:05:32;25.80;44.30
32173;DHT22;18679;45.190;5.722;2023-08-01T08:08:33;25.90;44.30
32173;DHT22;18679;45.190;5.722;2023-08-01T08:11:34;26.00;44.10
32173;DHT22;18679;45.190;5.722;2023-08-01T08:14:35;26.00;43.90
32173;DHT22;18679;45.190;5.722;2023-08-01T08:17:36;26.00;44.10
32173;DHT22;18679;45.190;5.722;2023-08-01T08:20:44;26.00;44.00
32173;DHT22;18679;45.190;5.722;2023-08-01T08:23:45;26.10;44.00
32173;DHT22;18679;45.190;5.722;2023-08-01T08:26:46;26.30;44.00
32173;DHT22;18679;45.190;5.722;2023-08-01T08:29:47;26.30;44.00
32173;DHT22;18679;45.190;5.722;2023-08-01T08:32:47;26.30;44.00
32173;DHT22;18679;45.190;5.722;2023-08-01T08:35:49;26.30;43.90
32173;DHT22;18679;45.190;5.722;2023-08-01T08:38:50;26.40;43.80
32173;DHT22;18679;45.190;5.722;2023-08-01T08:41:52;26.40;43.70
32173;DHT22;18679;45.190;5.722;2023-08-01T08:44:55;26.30;43.60
32173;DHT22;18679;45.190;5.722;2023-08-01T08:47:59;26.20;43.70
32173;DHT22;18679;45.190;5.722;2023-08-01T08:51:02;26.10;43.90
32173;DHT22;18679;45.190;5.722;2023-08-01T08:54:04;26.10;44.00
32173;DHT22;18679;45.190;5.722;2023-08-01T08:57:06;26.30;44.00
32173;DHT22;18679;45.190;5.722;2023-08-01T09:00:07;26.50;43.50
32173;DHT22;18679;45.190;5.722;2023-08-01T09:03:08;26.80;43.00
32173;DHT22;18679;45.190;5.722;2023-08-01T09:06:15;26.90;42.50
32173;DHT22;18679;45.190;5.722;2023-08-01T09:09:16;27.10;42.20
32173;DHT22;18679;45.190;5.722;2023-08-01T09:12:19;27.20;42.00
32173;DHT22;18679;45.190;5.722;2023-08-01T09:15:20;27.40;41.80
32173;DHT22;18679;45.190;5.722;2023-08-01T09:18:21;27.60;41.70
32173;DHT22;18679;45.190;5.722;2023-08-01T09:21:22;27.70;41.80
32173;DHT22;18679;45.190;5.722;2023-08-01T09:24:23;27.80;41.30
32173;DHT22;18679;45.190;5.722;2023-08-01T09:27:32;27.70;41.80
32173;DHT22;18679;45.190;5.722;2023-08-01T09:30:33;27.60;41.90
32173;DHT22;18679;45.190;5.722;2023-08-01T09:33:41;27.50;41.90
32173;DHT22;18679;45.190;5.722;2023-08-01T09:36:42;27.40;42.10
32173;DHT22;18679;45.190;5.722;2023-08-01T09:39:43;27.30;42.50
32173;DHT22;18679;45.190;5.722;2023-08-01T09:42:47;27.20;42.90
32173;DHT22;18679;45.190;5.722;2023-08-01T09:45:54;27.10;43.50
32173;DHT22;18679;45.190;5.722;2023-08-01T09:48:54;27.00;44.00
32173;DHT22;18679;45.190;5.722;2023-08-01T09:51:55;27.00;44.60
32173;DHT22;18679;45.190;5.722;2023-08-01T09:54:57;27.10;45.00
32173;DHT22;18679;45.190;5.722;2023-08-01T09:57:58;27.20;45.10
32173;DHT22;18679;45.190;5.722;2023-08-01T10:01:00;27.20;45.20
32173;DHT22;18679;45.190;5.722;2023-08-01T10:04:04;27.30;45.30
32173;DHT22;18679;45.190;5.722;2023-08-01T10:07:09;27.30;45.20
32173;DHT22;18679;45.190;5.722;2023-08-01T10:10:12;27.30;45.40
32173;DHT22;18679;45.190;5.722;2023-08-01T10:13:14;27.40;45.40
32173;DHT22;18679;45.190;5.722;2023-08-01T10:16:15;27.50;45.00
32173;DHT22;18679;45.190;5.722;2023-08-01T10:19:17;27.60;44.50
32173;DHT22;18679;45.190;5.722;2023-08-01T10:22:19;27.80;44.30
32173;DHT22;18679;45.190;5.722;2023-08-01T10:25:21;28.00;44.20
32173;DHT22;18679;45.190;5.722;2023-08-01T10:28:39;28.20;44.10
32173;DHT22;18679;45.190;5.722;2023-08-01T10:31:53;28.30;43.80
32173;DHT22;18679;45.190;5.722;2023-08-01T10:34:54;28.40;43.80
32173;DHT22;18679;45.190;5.722;2023-08-01T10:38:04;28.50;43.70
32173;DHT22;18679;45.190;5.722;2023-08-01T10:41:05;28.70;43.90
32173;DHT22;18679;45.190;5.722;2023-08-01T10:44:10;28.70;43.50
32173;DHT22;18679;45.190;5.722;2023-08-01T10:47:12;28.80;43.40
32173;DHT22;18679;45.190;5.722;2023-08-01T10:50:14;29.00;43.10
32173;DHT22;18679;45.190;5.722;2023-08-01T10:53:16;29.20;42.80
32173;DHT22;18679;45.190;5.722;2023-08-01T10:56:19;29.40;42.70
32173;DHT22;18679;45.190;5.722;2023-08-01T10:59:21;29.50;42.30
32173;DHT22;18679;45.190;5.722;2023-08-01T11:02:27;29.60;42.00
32173;DHT22;18679;45.190;5.722;2023-08-01T11:05:28;29.80;41.60
32173;DHT22;18679;45.190;5.722;2023-08-01T11:08:37;29.90;41.30
32173;DHT22;18679;45.190;5.722;2023-08-01T11:11:38;30.10;40.90
32173;DHT22;18679;45.190;5.722;2023-08-01T11:14:39;30.30;40.40
32173;DHT22;18679;45.190;5.722;2023-08-01T11:17:42;30.50;39.60
32173;DHT22;18679;45.190;5.722;2023-08-01T11:20:43;30.60;38.90
32173;DHT22;18679;45.190;5.722;2023-08-01T11:23:44;30.80;38.30
32173;DHT22;18679;45.190;5.722;2023-08-01T11:26:47;31.00;37.60
32173;DHT22;18679;45.190;5.722;2023-08-01T11:29:49;31.30;36.90
32173;DHT22;18679;45.190;5.722;2023-08-01T11:32:49;31.60;36.30
32173;DHT22;18679;45.190;5.722;2023-08-01T11:35:55;32.00;35.60
32173;DHT22;18679;45.190;5.722;2023-08-01T11:39:00;32.50;34.80
32173;DHT22;18679;45.190;5.722;2023-08-01T11:42:01;32.60;33.80
32173;DHT22;18679;45.190;5.722;2023-08-01T11:45:11;32.90;33.40
32173;DHT22;18679;45.190;5.722;2023-08-01T11:48:13;33.20;32.40
32173;DHT22;18679;45.190;5.722;2023-08-01T11:51:14;33.40;31.80
32173;DHT22;18679;45.190;5.722;2023-08-01T11:54:15;33.70;31.70
32173;DHT22;18679;45.190;5.722;2023-08-01T11:57:18;34.00;30.80
32173;DHT22;18679;45.190;5.722;2023-08-01T12:00:27;33.80;30.70
32173;DHT22;18679;45.190;5.722;2023-08-01T12:03:28;33.80;31.00
32173;DHT22;18679;45.190;5.722;2023-08-01T12:06:31;33.80;30.90
32173;DHT22;18679;45.190;5.722;2023-08-01T12:09:32;33.90;30.90
32173;DHT22;18679;45.190;5.722;2023-08-01T12:12:46;33.80;31.20
32173;DHT22;18679;45.190;5.722;2023-08-01T12:15:51;33.60;31.00
32173;DHT22;18679;45.190;5.722;2023-08-01T12:18:52;33.70;30.80
32173;DHT22;18679;45.190;5.722;2023-08-01T12:21:53;33.60;30.80
32173;DHT22;18679;45.190;5.722;2023-08-01T12:24:54;33.60;31.00
32173;DHT22;18679;45.190;5.722;2023-08-01T12:27:55;33.50;31.00
32173;DHT22;18679;45.190;5.722;2023-08-01T12:30:55;33.50;30.80
32173;DHT22;18679;45.190;5.722;2023-08-01T12:33:59;33.80;30.70
32173;DHT22;18679;45.190;5.722;2023-08-01T12:37:00;34.20;30.10
32173;DHT22;18679;45.190;5.722;2023-08-01T12:40:00;34.60;29.80
32173;DHT22;18679;45.190;5.722;2023-08-01T12:43:01;34.70;29.50
32173;DHT22;18679;45.190;5.722;2023-08-01T12:46:03;34.70;29.40
32173;DHT22;18679;45.190;5.722;2023-08-01T12:49:04;34.50;29.50
32173;DHT22;18679;45.190;5.722;2023-08-01T12:52:05;34.50;29.60
32173;DHT22;18679;45.190;5.722;2023-08-01T12:55:06;35.00;29.10
32173;DHT22;18679;45.190;5.722;2023-08-01T12:58:07;35.60;28.60
32173;DHT22;18679;45.190;5.722;2023-08-01T13:01:08;36.20;28.50
32173;DHT22;18679;45.190;5.722;2023-08-01T13:04:09;36.50;27.60
32173;DHT22;18679;45.190;5.722;2023-08-01T13:07:10;37.60;26.70
32173;DHT22;18679;45.190;5.722;2023-08-01T13:10:11;38.70;25.60
32173;DHT22;18679;45.190;5.722;2023-08-01T13:13:12;39.80;24.80
32173;DHT22;18679;45.190;5.722;2023-08-01T13:16:13;40.30;24.20
32173;DHT22;18679;45.190;5.722;2023-08-01T13:19:14;41.00;23.80
32173;DHT22;18679;45.190;5.722;2023-08-01T13:22:15;41.60;23.10
32173;DHT22;18679;45.190;5.722;2023-08-01T13:25:16;42.10;22.70
32173;DHT22;18679;45.190;5.722;2023-08-01T13:28:17;42.70;22.30
32173;DHT22;18679;45.190;5.722;2023-08-01T13:31:18;43.60;21.50
32173;DHT22;18679;45.190;5.722;2023-08-01T13:34:19;44.60;20.90
32173;DHT22;18679;45.190;5.722;2023-08-01T13:37:20;45.20;20.00
32173;DHT22;18679;45.190;5.722;2023-08-01T13:40:20;45.50;19.70
32173;DHT22;18679;45.190;5.722;2023-08-01T13:43:21;45.80;19.30
32173;DHT22;18679;45.190;5.722;2023-08-01T13:46:22;46.10;18.80
32173;DHT22;18679;45.190;5.722;2023-08-01T13:49:22;46.30;18.60
32173;DHT22;18679;45.190;5.722;2023-08-01T13:52:23;46.30;18.40
32173;DHT22;18679;45.190;5.722;2023-08-01T13:55:24;45.30;18.70
32173;DHT22;18679;45.190;5.722;2023-08-01T13:58:25;43.70;19.60
32173;DHT22;18679;45.190;5.722;2023-08-01T14:01:26;42.30;20.50
32173;DHT22;18679;45.190;5.722;2023-08-01T14:04:27;42.00;20.90
32173;DHT22;18679;45.190;5.722;2023-08-01T14:07:28;42.90;20.30
32173;DHT22;18679;45.190;5.722;2023-08-01T14:10:29;44.20;19.40
32173;DHT22;18679;45.190;5.722;2023-08-01T14:13:30;45.20;18.50
32173;DHT22;18679;45.190;5.722;2023-08-01T14:16:30;45.80;18.20
32173;DHT22;18679;45.190;5.722;2023-08-01T14:19:31;45.60;17.90
32173;DHT22;18679;45.190;5.722;2023-08-01T14:22:32;45.30;17.90
32173;DHT22;18679;45.190;5.722;2023-08-01T14:25:33;44.20;18.40
32173;DHT22;18679;45.190;5.722;2023-08-01T14:28:34;43.20;19.20
32173;DHT22;18679;45.190;5.722;2023-08-01T14:31:35;42.40;19.60
32173;DHT22;18679;45.190;5.722;2023-08-01T14:34:35;42.00;20.10
32173;DHT22;18679;45.190;5.722;2023-08-01T14:37:36;42.10;20.20
32173;DHT22;18679;45.190;5.722;2023-08-01T14:40:37;42.50;20.20
32173;DHT22;18679;45.190;5.722;2023-08-01T14:43:39;43.30;19.80
32173;DHT22;18679;45.190;5.722;2023-08-01T14:46:40;44.10;19.40
32173;DHT22;18679;45.190;5.722;2023-08-01T14:49:44;44.60;19.10
32173;DHT22;18679;45.190;5.722;2023-08-01T14:52:45;44.40;19.00
32173;DHT22;18679;45.190;5.722;2023-08-01T14:55:46;43.90;19.30
32173;DHT22;18679;45.190;5.722;2023-08-01T14:58:47;43.20;19.70
32173;DHT22;18679;45.190;5.722;2023-08-01T15:01:47;42.50;20.20
32173;DHT22;18679;45.190;5.722;2023-08-01T15:04:53;41.90;20.70
32173;DHT22;18679;45.190;5.722;2023-08-01T15:07:55;41.20;21.20
32173;DHT22;18679;45.190;5.722;2023-08-01T15:10:56;40.40;21.60
32173;DHT22;18679;45.190;5.722;2023-08-01T15:13:57;39.60;22.30
32173;DHT22;18679;45.190;5.722;2023-08-01T15:16:58;38.80;22.90
32173;DHT22;18679;45.190;5.722;2023-08-01T15:19:58;38.00;24.00
32173;DHT22;18679;45.190;5.722;2023-08-01T15:22:59;37.30;24.10
32173;DHT22;18679;45.190;5.722;2023-08-01T15:26:00;36.80;24.70
32173;DHT22;18679;45.190;5.722;2023-08-01T15:29:01;36.40;25.10
32173;DHT22;18679;45.190;5.722;2023-08-01T15:32:02;36.90;25.00
32173;DHT22;18679;45.190;5.722;2023-08-01T15:35:03;38.50;24.00
32173;DHT22;18679;45.190;5.722;2023-08-01T15:38:04;39.80;22.70
32173;DHT22;18679;45.190;5.722;2023-08-01T15:41:05;40.40;22.10
32173;DHT22;18679;45.190;5.722;2023-08-01T15:44:09;40.80;21.70
32173;DHT22;18679;45.190;5.722;2023-08-01T15:47:10;41.10;21.40
32173;DHT22;18679;45.190;5.722;2023-08-01T15:50:11;41.40;20.90
32173;DHT22;18679;45.190;5.722;2023-08-01T15:53:12;41.10;20.90
32173;DHT22;18679;45.190;5.722;2023-08-01T15:56:13;40.20;21.50
32173;DHT22;18679;45.190;5.722;2023-08-01T15:59:14;39.80;22.40
32173;DHT22;18679;45.190;5.722;2023-08-01T16:02:14;39.50;22.10
32173;DHT22;18679;45.190;5.722;2023-08-01T16:05:16;39.10;22.40
32173;DHT22;18679;45.190;5.722;2023-08-01T16:08:17;38.80;22.90
32173;DHT22;18679;45.190;5.722;2023-08-01T16:11:18;39.40;22.60
32173;DHT22;18679;45.190;5.722;2023-08-01T16:14:18;40.20;22.10
32173;DHT22;18679;45.190;5.722;2023-08-01T16:17:19;41.00;21.50
32173;DHT22;18679;45.190;5.722;2023-08-01T16:20:20;42.10;21.00
32173;DHT22;18679;45.190;5.722;2023-08-01T16:23:21;43.00;20.30
32173;DHT22;18679;45.190;5.722;2023-08-01T16:26:21;43.70;19.90
32173;DHT22;18679;45.190;5.722;2023-08-01T16:29:22;44.10;19.60
32173;DHT22;18679;45.190;5.722;2023-08-01T16:32:23;44.20;19.50
32173;DHT22;18679;45.190;5.722;2023-08-01T16:35:24;44.30;19.40
32173;DHT22;18679;45.190;5.722;2023-08-01T16:38:25;44.40;19.30
32173;DHT22;18679;45.190;5.722;2023-08-01T16:41:26;44.20;19.30
32173;DHT22;18679;45.190;5.722;2023-08-01T16:44:27;43.40;19.70
32173;DHT22;18679;45.190;5.722;2023-08-01T16:47:27;42.20;20.50
32173;DHT22;18679;45.190;5.722;2023-08-01T16:50:28;40.80;21.50
32173;DHT22;18679;45.190;5.722;2023-08-01T16:53:29;39.50;22.40
32173;DHT22;18679;45.190;5.722;2023-08-01T16:56:30;38.30;23.20
32173;DHT22;18679;45.190;5.722;2023-08-01T16:59:31;37.40;23.80
32173;DHT22;18679;45.190;5.722;2023-08-01T17:02:32;36.70;24.30
32173;DHT22;18679;45.190;5.722;2023-08-01T17:05:33;36.10;24.90
32173;DHT22;18679;45.190;5.722;2023-08-01T17:08:34;35.60;25.50
32173;DHT22;18679;45.190;5.722;2023-08-01T17:11:34;35.10;25.90
32173;DHT22;18679;45.190;5.722;2023-08-01T17:14:35;34.70;26.50
32173;DHT22;18679;45.190;5.722;2023-08-01T17:17:37;34.30;27.00
32173;DHT22;18679;45.190;5.722;2023-08-01T17:20:41;34.10;27.40
32173;DHT22;18679;45.190;5.722;2023-08-01T17:23:41;33.80;27.70
32173;DHT22;18679;45.190;5.722;2023-08-01T17:26:42;33.60;28.00
32173;DHT22;18679;45.190;5.722;2023-08-01T17:29:43;33.30;28.20
32173;DHT22;18679;45.190;5.722;2023-08-01T17:32:44;33.10;28.40
32173;DHT22;18679;45.190;5.722;2023-08-01T17:35:45;32.90;28.70
32173;DHT22;18679;45.190;5.722;2023-08-01T17:38:46;32.60;29.50
32173;DHT22;18679;45.190;5.722;2023-08-01T17:41:47;32.40;29.50
32173;DHT22;18679;45.190;5.722;2023-08-01T17:44:50;32.30;29.90
32173;DHT22;18679;45.190;5.722;2023-08-01T17:47:50;32.10;30.20
32173;DHT22;18679;45.190;5.722;2023-08-01T17:50:53;31.90;30.90
32173;DHT22;18679;45.190;5.722;2023-08-01T17:53:54;31.70;31.10
32173;DHT22;18679;45.190;5.722;2023-08-01T17:56:55;31.60;31.50
32173;DHT22;18679;45.190;5.722;2023-08-01T17:59:56;31.60;31.80
32173;DHT22;18679;45.190;5.722;2023-08-01T18:02:57;31.50;31.60
32173;DHT22;18679;45.190;5.722;2023-08-01T18:06:08;31.50;31.70
32173;DHT22;18679;45.190;5.722;2023-08-01T18:09:09;31.40;31.60
32173;DHT22;18679;45.190;5.722;2023-08-01T18:12:11;31.30;31.80
32173;DHT22;18679;45.190;5.722;2023-08-01T18:15:12;31.20;32.00
32173;DHT22;18679;45.190;5.722;2023-08-01T18:18:12;31.10;32.40
32173;DHT22;18679;45.190;5.722;2023-08-01T18:21:13;31.00;33.00
32173;DHT22;18679;45.190;5.722;2023-08-01T18:24:14;30.80;34.00
32173;DHT22;18679;45.190;5.722;2023-08-01T18:27:15;30.70;34.60
32173;DHT22;18679;45.190;5.722;2023-08-01T18:30:16;30.60;35.20
32173;DHT22;18679;45.190;5.722;2023-08-01T18:33:17;30.50;35.60
32173;DHT22;18679;45.190;5.722;2023-08-01T18:36:20;30.30;36.00
32173;DHT22;18679;45.190;5.722;2023-08-01T18:39:21;30.20;36.30
32173;DHT22;18679;45.190;5.722;2023-08-01T18:42:23;30.10;36.50
32173;DHT22;18679;45.190;5.722;2023-08-01T18:45:24;30.00;36.90
32173;DHT22;18679;45.190;5.722;2023-08-01T18:48:26;29.90;37.20
32173;DHT22;18679;45.190;5.722;2023-08-01T18:51:26;29.80;37.30
32173;DHT22;18679;45.190;5.722;2023-08-01T18:54:27;29.70;37.60
32173;DHT22;18679;45.190;5.722;2023-08-01T18:57:28;29.60;38.00
32173;DHT22;18679;45.190;5.722;2023-08-01T19:00:29;29.50;38.40
32173;DHT22;18679;45.190;5.722;2023-08-01T19:03:30;29.30;38.40
32173;DHT22;18679;45.190;5.722;2023-08-01T19:06:30;29.30;38.50